Evanston Regional Hospital, WY

5:56 AM MDT on May 26, 2015 (GMT -0600)
HADS | | Change Station
CLOSE
Current Station
Personal Weather Station
Location: Evanston, WY
Elevation: 6825 ft
Nearby Weather Stations

Elev 6825 ft 41.26 °N, 110.95 °W | Updated 41 minutes ago

Clear
Clear
37 °F
Feels Like 37 °F
N
1
Wind Variable Wind from SE
Gusts 2.0 mph

Today
High -- | Low -- °F
--% Chance of Precip.
Yesterday
High -- | Low -- °F
Precip. -- in
5:56 AM 8:45 PM
First Quarter, 57% visible
Pressure 29.93 in
Visibility 10.0 miles
Clouds Clear
Windchill 37 °F
Dew Point 34 °F
Humidity 90%
Rainfall in
Snow Depth Not available.
UV 0 out of 12
Pollen 5.80 out of 12
Air Quality Not available.
Flu Activity Sporadic
METAR KEVW 261053Z AUTO 19004KT 10SM CLR 04/03 A3007 RMK AO2 SLP134 T00440028

More Conditions Fewer Conditions

Pressure 29.93 in
Visibility 10.0 miles
Clouds Clear
Windchill 37 °F
Dew Point 34 °F
Humidity 90%
Rainfall in
Snow Depth Not available.
UV 0 out of 12
Pollen 5.80 out of 12
Air Quality Not available.
Flu Activity Sporadic
METAR KEVW 261053Z AUTO 19004KT 10SM CLR 04/03 A3007 RMK AO2 SLP134 T00440028

More Conditions Fewer Conditions

10-Day Weather Forecast

Almanac

Astronomy

May. 26, 2015 Rise Set
Actual Time
Civil Twilight
Nautical Twilight
Astronomical Twilight
Moon
Length of Visible Light
Length of Day
Tomorrow will be .
, % of the Moon is Illuminated

Today's Extremes

State Highs State Lows

Community

WunderPhotos

Upload Photos

1,824,304 photos uploaded!

WunderBlogs® & News

Nearby

Air Quality

  Air Quality AQ Index Pollutant
Not available.

Snow Depth

Station Depth Elevation

Earthquake Activity

City Distance Mag. Time & Date
Minimum magnitude displayed is 2.5.

Coastal Water Temperatures

Place Temperature

Stations

Nearby Weather Stations

Station Location Temp. Windchill Dew Point Humidity Wind Precip. Elev Updated Type